Lubbock, TX (79423)

3:01 PM CDT on April 19, 2015 (GMT -0500)
Orchard Park | | Change Station
CLOSE
Current Station
Personal Weather Station
Location: Lubbock, TX
Elevation: 3253 ft
Nearby Weather Stations

Elev 3253 ft 33.49 °N, 101.90 °W | Updated 2 seconds ago

Mostly Cloudy
Mostly Cloudy
64.1 °F
Feels Like 64.1 °F
N
16.0
Wind Variable Wind from NNW
Gusts 20.0 mph

Today
High -- | Low -- °F
--% Chance of Precip.
Yesterday
High -- | Low -- °F
Precip. -- in
7:12 AM 8:21 PM
New Moon, 2% visible
Pressure 29.88 in
Visibility 10.0 miles
Clouds Overcast 6000 ft
Dew Point 39 °F
Humidity 40%
Rainfall 0.00 in
Snow Depth Not available.
UV 3 out of 12
Pollen 9.30 out of 12
Air Quality Not available.
Flu Activity Local Activity
METAR KLBB 191953Z 34021G28KT 10SM OVC060 18/03 A2996 RMK AO2 PK WND 34031/1926 SLP117 BINOVC T01830028

More Conditions Fewer Conditions

Pressure 29.88 in
Visibility 10.0 miles
Clouds Overcast 6000 ft
Dew Point 39 °F
Humidity 40%
Rainfall 0.00 in
Snow Depth Not available.
UV 3 out of 12
Pollen 9.30 out of 12
Air Quality Not available.
Flu Activity Local Activity
METAR KLBB 191953Z 34021G28KT 10SM OVC060 18/03 A2996 RMK AO2 PK WND 34031/1926 SLP117 BINOVC T01830028

More Conditions Fewer Conditions

10-Day Weather Forecast

Almanac

Astronomy

Apr. 19, 2015 Rise Set
Actual Time
Civil Twilight
Nautical Twilight
Astronomical Twilight
Moon
Length of Visible Light
Length of Day
Tomorrow will be .
, % of the Moon is Illuminated

Today's Extremes

State Highs State Lows

Community

WunderPhotos

Upload Photos

1,814,956 photos uploaded!

WunderBlogs® & News

Nearby

Air Quality

  Air Quality AQ Index Pollutant
Not available.

Snow Depth

Station Depth Elevation

Earthquake Activity

City Distance Mag. Time & Date
Minimum magnitude displayed is 2.5.

Coastal Water Temperatures

Place Temperature

Stations

Nearby Weather Stations

Station Location Temp. Windchill Dew Point Humidity Wind Precip. Elev Updated Type